This is the latest recevied weather packets stored in our database for station/object E22ZMG-4. If no packets are shown the sender has not sent any weather packets the latest 10 day(s).
| Time | Temp. | Humidity | Pressure | Rain* | Wind** | Luminosity | Snow |
|---|---|---|---|---|---|---|---|
| 1777970154 | 27.22° C | 46% | 973 hPa | - | - | 0 W/m² | - |
| 1777969529 | 27.22° C | 49% | 974 hPa | - | - | 0 W/m² | - |
| 1777968903 | 27.22° C | 47% | 974 hPa | - | - | 0 W/m² | - |
| 1777968279 | 26.67° C | 40% | 974 hPa | - | - | 0 W/m² | - |
| 1777967654 | 26.67° C | 40% | 974 hPa | - | - | 0 W/m² | - |
| 1777967029 | 27.22° C | 41% | 975 hPa | - | - | 0 W/m² | - |
| 1777966404 | 27.22° C | 42% | 975 hPa | - | - | 0 W/m² | - |
| 1777965780 | 27.22° C | 44% | 975 hPa | - | - | 0 W/m² | - |
| 1777965155 | 27.78° C | 43% | 975 hPa | - | - | 0 W/m² | - |
| 1777964532 | 28.33° C | 48% | 975 hPa | - | - | 0 W/m² | - |
| 1777963907 | 28.33° C | 53% | 975 hPa | - | - | 0 W/m² | - |
| 1777963284 | 27.78° C | 47% | 976 hPa | - | - | 0 W/m² | - |
| 1777962658 | 27.22° C | 40% | 976 hPa | - | - | 0 W/m² | - |
| 1777962033 | 27.78° C | 39% | 976 hPa | - | - | 0 W/m² | - |
| 1777961408 | 28.33° C | 41% | 976 hPa | - | - | 0 W/m² | - |
| 1777960784 | 28.89° C | 44% | 977 hPa | - | - | 0 W/m² | - |
| 1777960159 | 29.44° C | 46% | 977 hPa | - | - | 0 W/m² | - |
| 1777959535 | 30.56° C | 48% | 977 hPa | - | - | 0 W/m² | - |
| 1777958911 | 32.22° C | 54% | 978 hPa | - | - | 0 W/m² | - |
| 1777958287 | 31.67° C | 54% | 978 hPa | - | - | 0 W/m² | - |
| 1777957662 | 31.67° C | 54% | 978 hPa | - | - | 0 W/m² | - |
| 1777957038 | 31.67° C | 54% | 978 hPa | - | - | 0 W/m² | - |
| 1777956414 | 31.67° C | 55% | 978 hPa | - | - | 0 W/m² | - |
| 1777955792 | 31.11° C | 55% | 978 hPa | - | - | 0 W/m² | - |
| 1777955167 | 31.11° C | 55% | 979 hPa | - | - | 0 W/m² | - |
* Rain since midnight (hover to see other rain measurements)
** Current wind speed in m/s (hover to see current wind gust speed)